sensor_id;sensor_type;location;lat;lon;timestamp;temperature;humidity
72865;DHT22;61000;48.120;11.548;2022-09-27T00:01:55;10.90;98.40
72865;DHT22;61000;48.120;11.548;2022-09-27T00:04:22;10.90;98.50
72865;DHT22;61000;48.120;11.548;2022-09-27T00:06:49;10.90;98.90
72865;DHT22;61000;48.120;11.548;2022-09-27T00:09:17;10.90;99.00
72865;DHT22;61000;48.120;11.548;2022-09-27T00:11:45;10.90;99.10
72865;DHT22;61000;48.120;11.548;2022-09-27T00:14:16;10.90;99.30
72865;DHT22;61000;48.120;11.548;2022-09-27T00:16:43;10.90;99.50
72865;DHT22;61000;48.120;11.548;2022-09-27T00:19:12;10.80;99.90
72865;DHT22;61000;48.120;11.548;2022-09-27T00:21:40;10.90;99.80
72865;DHT22;61000;48.120;11.548;2022-09-27T00:24:11;10.80;99.80
72865;DHT22;61000;48.120;11.548;2022-09-27T00:26:39;10.80;99.90
72865;DHT22;61000;48.120;11.548;2022-09-27T00:29:07;10.80;99.90
72865;DHT22;61000;48.120;11.548;2022-09-27T00:31:36;10.80;99.90
72865;DHT22;61000;48.120;11.548;2022-09-27T00:34:04;10.80;99.90
72865;DHT22;61000;48.120;11.548;2022-09-27T00:36:32;10.70;99.90
72865;DHT22;61000;48.120;11.548;2022-09-27T00:38:59;10.70;99.90
72865;DHT22;61000;48.120;11.548;2022-09-27T00:41:28;10.70;99.90
72865;DHT22;61000;48.120;11.548;2022-09-27T00:43:59;10.70;99.90
72865;DHT22;61000;48.120;11.548;2022-09-27T00:46:30;10.60;99.90
72865;DHT22;61000;48.120;11.548;2022-09-27T00:49:05;10.60;99.90
72865;DHT22;61000;48.120;11.548;2022-09-27T00:51:33;10.60;99.90
72865;DHT22;61000;48.120;11.548;2022-09-27T00:54:02;10.60;99.90
72865;DHT22;61000;48.120;11.548;2022-09-27T00:56:31;10.60;99.90
72865;DHT22;61000;48.120;11.548;2022-09-27T00:59:02;10.60;99.90
72865;DHT22;61000;48.120;11.548;2022-09-27T01:01:32;10.60;99.90
72865;DHT22;61000;48.120;11.548;2022-09-27T01:04:02;10.60;99.90
72865;DHT22;61000;48.120;11.548;2022-09-27T01:06:31;10.50;99.90
72865;DHT22;61000;48.120;11.548;2022-09-27T01:08:58;10.60;99.90
72865;DHT22;61000;48.120;11.548;2022-09-27T01:11:34;10.50;99.90
72865;DHT22;61000;48.120;11.548;2022-09-27T01:14:21;10.50;99.90
72865;DHT22;61000;48.120;11.548;2022-09-27T01:16:58;10.50;99.90
72865;DHT22;61000;48.120;11.548;2022-09-27T01:20:00;10.50;99.90
72865;DHT22;61000;48.120;11.548;2022-09-27T01:22:37;10.40;99.90
72865;DHT22;61000;48.120;11.548;2022-09-27T01:25:22;10.50;99.90
72865;DHT22;61000;48.120;11.548;2022-09-27T01:28:16;10.50;99.90
72865;DHT22;61000;48.120;11.548;2022-09-27T01:30:52;10.50;99.90
72865;DHT22;61000;48.120;11.548;2022-09-27T01:33:31;10.50;99.90
72865;DHT22;61000;48.120;11.548;2022-09-27T01:36:14;10.50;99.90
72865;DHT22;61000;48.120;11.548;2022-09-27T01:38:50;10.40;99.90
72865;DHT22;61000;48.120;11.548;2022-09-27T01:41:26;10.40;99.90
72865;DHT22;61000;48.120;11.548;2022-09-27T01:44:19;10.40;99.90
72865;DHT22;61000;48.120;11.548;2022-09-27T01:46:55;10.40;99.90
72865;DHT22;61000;48.120;11.548;2022-09-27T01:50:02;10.40;99.90
72865;DHT22;61000;48.120;11.548;2022-09-27T01:52:36;10.40;99.90
72865;DHT22;61000;48.120;11.548;2022-09-27T01:55:07;10.30;99.90
72865;DHT22;61000;48.120;11.548;2022-09-27T01:58:12;10.30;99.90
72865;DHT22;61000;48.120;11.548;2022-09-27T02:00:46;10.30;99.90
72865;DHT22;61000;48.120;11.548;2022-09-27T02:03:19;10.30;99.90
72865;DHT22;61000;48.120;11.548;2022-09-27T02:06:18;10.30;99.90
72865;DHT22;61000;48.120;11.548;2022-09-27T02:09:02;10.30;99.90
72865;DHT22;61000;48.120;11.548;2022-09-27T02:11:46;10.30;99.90
72865;DHT22;61000;48.120;11.548;2022-09-27T02:14:19;10.30;99.90
72865;DHT22;61000;48.120;11.548;2022-09-27T02:16:53;10.20;99.90
72865;DHT22;61000;48.120;11.548;2022-09-27T02:19:35;10.20;99.90
72865;DHT22;61000;48.120;11.548;2022-09-27T02:22:12;10.20;99.90
72865;DHT22;61000;48.120;11.548;2022-09-27T02:24:44;10.20;99.90
72865;DHT22;61000;48.120;11.548;2022-09-27T02:27:15;10.20;99.90
72865;DHT22;61000;48.120;11.548;2022-09-27T02:29:48;10.20;99.90
72865;DHT22;61000;48.120;11.548;2022-09-27T02:32:18;10.20;99.90
72865;DHT22;61000;48.120;11.548;2022-09-27T02:34:48;10.20;99.90
72865;DHT22;61000;48.120;11.548;2022-09-27T02:37:17;10.20;99.90
72865;DHT22;61000;48.120;11.548;2022-09-27T02:39:44;10.10;99.90
72865;DHT22;61000;48.120;11.548;2022-09-27T02:42:11;10.10;99.90
72865;DHT22;61000;48.120;11.548;2022-09-27T02:44:39;10.10;99.90
72865;DHT22;61000;48.120;11.548;2022-09-27T02:47:17;10.10;99.90
72865;DHT22;61000;48.120;11.548;2022-09-27T02:49:59;10.10;99.90
72865;DHT22;61000;48.120;11.548;2022-09-27T02:52:55;10.10;99.90
72865;DHT22;61000;48.120;11.548;2022-09-27T02:55:39;10.10;99.90
72865;DHT22;61000;48.120;11.548;2022-09-27T02:58:44;10.10;99.90
72865;DHT22;61000;48.120;11.548;2022-09-27T03:01:33;10.00;99.90
72865;DHT22;61000;48.120;11.548;2022-09-27T03:04:09;10.00;99.90
72865;DHT22;61000;48.120;11.548;2022-09-27T03:06:44;9.90;99.90
72865;DHT22;61000;48.120;11.548;2022-09-27T03:09:18;10.00;99.90
72865;DHT22;61000;48.120;11.548;2022-09-27T03:11:46;10.00;99.90
72865;DHT22;61000;48.120;11.548;2022-09-27T03:14:13;10.00;99.90
72865;DHT22;61000;48.120;11.548;2022-09-27T03:16:51;9.90;99.90
72865;DHT22;61000;48.120;11.548;2022-09-27T03:19:47;9.90;99.90
72865;DHT22;61000;48.120;11.548;2022-09-27T03:22:41;9.90;99.90
72865;DHT22;61000;48.120;11.548;2022-09-27T03:25:08;9.90;99.90
72865;DHT22;61000;48.120;11.548;2022-09-27T03:27:35;9.90;99.90
72865;DHT22;61000;48.120;11.548;2022-09-27T03:30:03;9.90;99.90
72865;DHT22;61000;48.120;11.548;2022-09-27T03:32:31;9.90;99.90
72865;DHT22;61000;48.120;11.548;2022-09-27T03:35:04;9.90;99.90
72865;DHT22;61000;48.120;11.548;2022-09-27T03:37:31;9.90;99.90
72865;DHT22;61000;48.120;11.548;2022-09-27T03:40:00;9.90;99.90
72865;DHT22;61000;48.120;11.548;2022-09-27T03:42:27;9.90;99.90
72865;DHT22;61000;48.120;11.548;2022-09-27T03:44:54;9.90;99.90
72865;DHT22;61000;48.120;11.548;2022-09-27T03:47:21;9.90;99.90
72865;DHT22;61000;48.120;11.548;2022-09-27T03:49:48;9.90;99.90
72865;DHT22;61000;48.120;11.548;2022-09-27T03:52:15;9.90;99.90
72865;DHT22;61000;48.120;11.548;2022-09-27T03:54:43;9.90;99.90
72865;DHT22;61000;48.120;11.548;2022-09-27T03:57:11;9.90;99.90
72865;DHT22;61000;48.120;11.548;2022-09-27T03:59:39;9.90;99.90
72865;DHT22;61000;48.120;11.548;2022-09-27T04:02:25;9.90;99.90
72865;DHT22;61000;48.120;11.548;2022-09-27T04:05:17;9.90;99.90
72865;DHT22;61000;48.120;11.548;2022-09-27T04:07:46;9.90;99.90
72865;DHT22;61000;48.120;11.548;2022-09-27T04:10:15;9.90;99.90
72865;DHT22;61000;48.120;11.548;2022-09-27T04:12:44;9.90;99.90
72865;DHT22;61000;48.120;11.548;2022-09-27T04:15:11;9.90;99.90
72865;DHT22;61000;48.120;11.548;2022-09-27T04:17:50;9.90;99.90
72865;DHT22;61000;48.120;11.548;2022-09-27T04:20:33;9.90;99.90
72865;DHT22;61000;48.120;11.548;2022-09-27T04:23:06;9.90;99.90
72865;DHT22;61000;48.120;11.548;2022-09-27T04:25:36;9.90;99.90
72865;DHT22;61000;48.120;11.548;2022-09-27T04:28:15;9.90;99.90
72865;DHT22;61000;48.120;11.548;2022-09-27T04:30:42;9.90;99.90
72865;DHT22;61000;48.120;11.548;2022-09-27T04:33:12;9.90;99.90
72865;DHT22;61000;48.120;11.548;2022-09-27T04:35:57;9.90;99.90
72865;DHT22;61000;48.120;11.548;2022-09-27T04:38:58;9.90;99.90
72865;DHT22;61000;48.120;11.548;2022-09-27T04:41:26;9.90;99.90
72865;DHT22;61000;48.120;11.548;2022-09-27T04:43:56;9.90;99.90
72865;DHT22;61000;48.120;11.548;2022-09-27T04:46:23;9.90;99.90
72865;DHT22;61000;48.120;11.548;2022-09-27T04:48:50;9.90;99.90
72865;DHT22;61000;48.120;11.548;2022-09-27T04:51:18;9.90;99.90
72865;DHT22;61000;48.120;11.548;2022-09-27T04:53:45;9.90;99.90
72865;DHT22;61000;48.120;11.548;2022-09-27T04:56:13;9.90;99.90
72865;DHT22;61000;48.120;11.548;2022-09-27T04:58:40;9.90;99.90
72865;DHT22;61000;48.120;11.548;2022-09-27T05:01:09;9.80;99.90
72865;DHT22;61000;48.120;11.548;2022-09-27T05:03:50;9.90;99.90
72865;DHT22;61000;48.120;11.548;2022-09-27T05:06:17;9.90;99.90
72865;DHT22;61000;48.120;11.548;2022-09-27T05:08:45;9.90;99.90
72865;DHT22;61000;48.120;11.548;2022-09-27T05:11:18;9.90;99.90
72865;DHT22;61000;48.120;11.548;2022-09-27T05:14:04;9.90;99.90
72865;DHT22;61000;48.120;11.548;2022-09-27T05:16:41;9.90;99.90
72865;DHT22;61000;48.120;11.548;2022-09-27T05:19:37;9.90;99.90
72865;DHT22;61000;48.120;11.548;2022-09-27T05:22:18;9.90;99.90
72865;DHT22;61000;48.120;11.548;2022-09-27T05:24:45;9.90;99.90
72865;DHT22;61000;48.120;11.548;2022-09-27T05:27:13;9.90;99.90
72865;DHT22;61000;48.120;11.548;2022-09-27T05:29:43;9.90;99.90
72865;DHT22;61000;48.120;11.548;2022-09-27T05:32:17;10.00;99.90
72865;DHT22;61000;48.120;11.548;2022-09-27T05:34:47;10.00;99.90
72865;DHT22;61000;48.120;11.548;2022-09-27T05:37:18;10.00;99.90
72865;DHT22;61000;48.120;11.548;2022-09-27T05:39:46;10.00;99.90
72865;DHT22;61000;48.120;11.548;2022-09-27T05:42:13;10.00;99.90
72865;DHT22;61000;48.120;11.548;2022-09-27T05:44:41;10.00;99.90
72865;DHT22;61000;48.120;11.548;2022-09-27T05:47:11;10.00;99.90
72865;DHT22;61000;48.120;11.548;2022-09-27T05:49:40;10.00;99.90
72865;DHT22;61000;48.120;11.548;2022-09-27T05:52:09;10.00;99.90
72865;DHT22;61000;48.120;11.548;2022-09-27T05:54:36;10.00;99.90
72865;DHT22;61000;48.120;11.548;2022-09-27T05:57:04;10.00;99.90
72865;DHT22;61000;48.120;11.548;2022-09-27T05:59:42;10.00;99.90
72865;DHT22;61000;48.120;11.548;2022-09-27T06:02:18;10.00;99.90
72865;DHT22;61000;48.120;11.548;2022-09-27T06:05:06;10.00;99.90
72865;DHT22;61000;48.120;11.548;2022-09-27T06:07:39;10.00;99.90
72865;DHT22;61000;48.120;11.548;2022-09-27T06:10:10;10.00;99.90
72865;DHT22;61000;48.120;11.548;2022-09-27T06:12:37;10.00;99.90
72865;DHT22;61000;48.120;11.548;2022-09-27T06:15:15;10.00;99.90
72865;DHT22;61000;48.120;11.548;2022-09-27T06:17:43;10.00;99.90
72865;DHT22;61000;48.120;11.548;2022-09-27T06:20:17;10.00;99.90
72865;DHT22;61000;48.120;11.548;2022-09-27T06:22:46;9.90;99.90
72865;DHT22;61000;48.120;11.548;2022-09-27T06:25:13;9.90;99.90
72865;DHT22;61000;48.120;11.548;2022-09-27T06:27:58;9.90;99.90
72865;DHT22;61000;48.120;11.548;2022-09-27T06:30:27;9.90;99.90
72865;DHT22;61000;48.120;11.548;2022-09-27T06:32:56;9.90;99.90
72865;DHT22;61000;48.120;11.548;2022-09-27T06:35:40;9.90;99.90
72865;DHT22;61000;48.120;11.548;2022-09-27T06:38:10;9.90;99.90
72865;DHT22;61000;48.120;11.548;2022-09-27T06:40:44;9.90;99.90
72865;DHT22;61000;48.120;11.548;2022-09-27T06:43:29;9.90;99.90
72865;DHT22;61000;48.120;11.548;2022-09-27T06:46:33;9.90;99.90
72865;DHT22;61000;48.120;11.548;2022-09-27T06:49:21;10.00;99.90
72865;DHT22;61000;48.120;11.548;2022-09-27T06:51:52;10.00;99.90
72865;DHT22;61000;48.120;11.548;2022-09-27T06:54:20;10.10;99.90
72865;DHT22;61000;48.120;11.548;2022-09-27T06:56:47;10.20;99.90
72865;DHT22;61000;48.120;11.548;2022-09-27T06:59:15;10.20;99.90
72865;DHT22;61000;48.120;11.548;2022-09-27T07:02:22;10.20;99.90
72865;DHT22;61000;48.120;11.548;2022-09-27T07:05:12;10.30;99.90
72865;DHT22;61000;48.120;11.548;2022-09-27T07:08:03;10.30;99.90
72865;DHT22;61000;48.120;11.548;2022-09-27T07:10:33;10.40;99.90
72865;DHT22;61000;48.120;11.548;2022-09-27T07:13:02;10.50;99.90
72865;DHT22;61000;48.120;11.548;2022-09-27T07:15:30;10.60;99.90
72865;DHT22;61000;48.120;11.548;2022-09-27T07:17:58;10.70;99.90
72865;DHT22;61000;48.120;11.548;2022-09-27T07:20:28;10.70;99.90
72865;DHT22;61000;48.120;11.548;2022-09-27T07:22:56;10.70;99.90
72865;DHT22;61000;48.120;11.548;2022-09-27T07:25:25;10.80;99.90
72865;DHT22;61000;48.120;11.548;2022-09-27T07:27:52;10.80;99.90
72865;DHT22;61000;48.120;11.548;2022-09-27T07:30:19;10.80;99.80
72865;DHT22;61000;48.120;11.548;2022-09-27T07:32:48;10.80;99.90
72865;DHT22;61000;48.120;11.548;2022-09-27T07:35:15;10.90;99.90
72865;DHT22;61000;48.120;11.548;2022-09-27T07:37:43;10.90;99.90
72865;DHT22;61000;48.120;11.548;2022-09-27T07:40:11;10.90;99.90
72865;DHT22;61000;48.120;11.548;2022-09-27T07:42:39;11.00;99.90
72865;DHT22;61000;48.120;11.548;2022-09-27T07:45:08;11.10;99.90
72865;DHT22;61000;48.120;11.548;2022-09-27T07:48:03;11.10;99.90
72865;DHT22;61000;48.120;11.548;2022-09-27T07:50:51;11.20;99.90
72865;DHT22;61000;48.120;11.548;2022-09-27T07:53:39;11.20;99.30
72865;DHT22;61000;48.120;11.548;2022-09-27T07:56:29;11.20;99.40
72865;DHT22;61000;48.120;11.548;2022-09-27T07:58:57;11.10;99.50
72865;DHT22;61000;48.120;11.548;2022-09-27T08:01:24;11.10;98.80
72865;DHT22;61000;48.120;11.548;2022-09-27T08:03:52;11.20;98.80
72865;DHT22;61000;48.120;11.548;2022-09-27T08:06:20;11.20;98.40
72865;DHT22;61000;48.120;11.548;2022-09-27T08:08:47;11.30;97.90
72865;DHT22;61000;48.120;11.548;2022-09-27T08:11:16;11.30;96.90
72865;DHT22;61000;48.120;11.548;2022-09-27T08:13:45;11.30;97.10
72865;DHT22;61000;48.120;11.548;2022-09-27T08:16:19;11.20;97.80
72865;DHT22;61000;48.120;11.548;2022-09-27T08:19:05;10.80;98.70
72865;DHT22;61000;48.120;11.548;2022-09-27T08:21:51;10.30;99.30
72865;DHT22;61000;48.120;11.548;2022-09-27T08:24:22;9.90;99.90
72865;DHT22;61000;48.120;11.548;2022-09-27T08:27:10;9.60;99.90
72865;DHT22;61000;48.120;11.548;2022-09-27T08:29:57;9.40;99.90
72865;DHT22;61000;48.120;11.548;2022-09-27T08:32:26;9.30;99.90
72865;DHT22;61000;48.120;11.548;2022-09-27T08:34:55;9.20;99.90
72865;DHT22;61000;48.120;11.548;2022-09-27T08:37:22;9.30;99.90
72865;DHT22;61000;48.120;11.548;2022-09-27T08:39:49;9.30;99.90
72865;DHT22;61000;48.120;11.548;2022-09-27T08:42:26;9.30;99.90
72865;DHT22;61000;48.120;11.548;2022-09-27T08:44:58;9.20;99.90
72865;DHT22;61000;48.120;11.548;2022-09-27T08:47:34;9.30;99.90
72865;DHT22;61000;48.120;11.548;2022-09-27T08:50:09;9.30;99.90
72865;DHT22;61000;48.120;11.548;2022-09-27T08:52:42;9.40;99.90
72865;DHT22;61000;48.120;11.548;2022-09-27T08:55:20;9.80;99.90
72865;DHT22;61000;48.120;11.548;2022-09-27T08:57:49;10.20;99.90
72865;DHT22;61000;48.120;11.548;2022-09-27T09:00:18;11.00;99.90
72865;DHT22;61000;48.120;11.548;2022-09-27T09:02:47;11.60;98.80
72865;DHT22;61000;48.120;11.548;2022-09-27T09:05:18;12.00;98.00
72865;DHT22;61000;48.120;11.548;2022-09-27T09:08:04;11.60;97.20
72865;DHT22;61000;48.120;11.548;2022-09-27T09:10:42;11.20;97.70
72865;DHT22;61000;48.120;11.548;2022-09-27T09:13:42;11.00;98.70
72865;DHT22;61000;48.120;11.548;2022-09-27T09:16:16;11.80;97.20
72865;DHT22;61000;48.120;11.548;2022-09-27T09:19:00;12.80;95.40
72865;DHT22;61000;48.120;11.548;2022-09-27T09:21:58;14.10;92.80
72865;DHT22;61000;48.120;11.548;2022-09-27T09:24:38;14.90;90.20
72865;DHT22;61000;48.120;11.548;2022-09-27T09:27:13;15.30;88.00
72865;DHT22;61000;48.120;11.548;2022-09-27T09:30:10;14.90;85.40
72865;DHT22;61000;48.120;11.548;2022-09-27T09:32:56;14.60;86.60
72865;DHT22;61000;48.120;11.548;2022-09-27T09:35:33;14.30;88.40
72865;DHT22;61000;48.120;11.548;2022-09-27T09:38:05;13.90;88.80
72865;DHT22;61000;48.120;11.548;2022-09-27T09:40:41;13.20;91.00
72865;DHT22;61000;48.120;11.548;2022-09-27T09:43:14;12.80;91.60
72865;DHT22;61000;48.120;11.548;2022-09-27T09:45:45;12.10;92.00
72865;DHT22;61000;48.120;11.548;2022-09-27T09:48:21;11.60;93.00
72865;DHT22;61000;48.120;11.548;2022-09-27T09:50:53;11.40;94.70
72865;DHT22;61000;48.120;11.548;2022-09-27T09:53:26;11.30;94.40
72865;DHT22;61000;48.120;11.548;2022-09-27T09:55:59;11.10;94.80
72865;DHT22;61000;48.120;11.548;2022-09-27T09:58:35;11.00;94.90
72865;DHT22;61000;48.120;11.548;2022-09-27T10:01:13;11.00;95.10
72865;DHT22;61000;48.120;11.548;2022-09-27T10:03:43;11.00;95.50
72865;DHT22;61000;48.120;11.548;2022-09-27T10:06:12;11.00;95.80
72865;DHT22;61000;48.120;11.548;2022-09-27T10:08:40;11.00;95.40
72865;DHT22;61000;48.120;11.548;2022-09-27T10:11:34;11.00;95.40
72865;DHT22;61000;48.120;11.548;2022-09-27T10:14:10;10.90;96.40
72865;DHT22;61000;48.120;11.548;2022-09-27T10:16:39;10.90;96.60
72865;DHT22;61000;48.120;11.548;2022-09-27T10:19:08;10.80;97.10
72865;DHT22;61000;48.120;11.548;2022-09-27T10:21:40;10.70;97.80
72865;DHT22;61000;48.120;11.548;2022-09-27T10:24:11;10.70;98.10
72865;DHT22;61000;48.120;11.548;2022-09-27T10:26:57;10.80;98.60
72865;DHT22;61000;48.120;11.548;2022-09-27T10:29:29;10.80;97.90
72865;DHT22;61000;48.120;11.548;2022-09-27T10:31:58;10.60;97.50
72865;DHT22;61000;48.120;11.548;2022-09-27T10:34:41;10.70;97.80
72865;DHT22;61000;48.120;11.548;2022-09-27T10:37:17;10.90;97.70
72865;DHT22;61000;48.120;11.548;2022-09-27T10:40:24;11.00;97.90
72865;DHT22;61000;48.120;11.548;2022-09-27T10:42:51;10.90;97.70
72865;DHT22;61000;48.120;11.548;2022-09-27T10:45:28;10.80;98.30
72865;DHT22;61000;48.120;11.548;2022-09-27T10:48:00;10.70;99.10
72865;DHT22;61000;48.120;11.548;2022-09-27T10:50:55;10.60;99.90
72865;DHT22;61000;48.120;11.548;2022-09-27T10:53:27;10.60;99.90
72865;DHT22;61000;48.120;11.548;2022-09-27T10:56:03;10.50;99.90
72865;DHT22;61000;48.120;11.548;2022-09-27T10:58:33;10.40;99.90
72865;DHT22;61000;48.120;11.548;2022-09-27T11:01:03;10.40;99.90
72865;DHT22;61000;48.120;11.548;2022-09-27T11:03:47;10.70;99.90
72865;DHT22;61000;48.120;11.548;2022-09-27T11:06:23;11.00;99.90
72865;DHT22;61000;48.120;11.548;2022-09-27T11:08:54;11.30;99.90
72865;DHT22;61000;48.120;11.548;2022-09-27T11:11:25;11.50;99.90
72865;DHT22;61000;48.120;11.548;2022-09-27T11:13:58;11.70;99.90
72865;DHT22;61000;48.120;11.548;2022-09-27T11:16:40;11.90;99.90
72865;DHT22;61000;48.120;11.548;2022-09-27T11:19:22;12.00;99.90
72865;DHT22;61000;48.120;11.548;2022-09-27T11:21:55;11.90;98.60
72865;DHT22;61000;48.120;11.548;2022-09-27T11:24:51;12.10;98.90
72865;DHT22;61000;48.120;11.548;2022-09-27T11:27:34;12.00;97.90
72865;DHT22;61000;48.120;11.548;2022-09-27T11:30:09;11.80;97.20
72865;DHT22;61000;48.120;11.548;2022-09-27T11:33:11;11.70;97.30
72865;DHT22;61000;48.120;11.548;2022-09-27T11:35:52;11.40;97.30
72865;DHT22;61000;48.120;11.548;2022-09-27T11:38:25;11.20;96.80
72865;DHT22;61000;48.120;11.548;2022-09-27T11:41:10;10.90;96.80
72865;DHT22;61000;48.120;11.548;2022-09-27T11:43:57;10.90;96.50
72865;DHT22;61000;48.120;11.548;2022-09-27T11:46:30;11.00;97.40
72865;DHT22;61000;48.120;11.548;2022-09-27T11:49:37;11.20;96.80
72865;DHT22;61000;48.120;11.548;2022-09-27T11:52:31;11.40;96.40
72865;DHT22;61000;48.120;11.548;2022-09-27T11:55:09;11.50;96.70
72865;DHT22;61000;48.120;11.548;2022-09-27T11:57:44;11.60;96.20
72865;DHT22;61000;48.120;11.548;2022-09-27T12:00:18;11.70;96.20
72865;DHT22;61000;48.120;11.548;2022-09-27T12:03:19;11.70;96.20
72865;DHT22;61000;48.120;11.548;2022-09-27T12:05:59;11.60;96.60
72865;DHT22;61000;48.120;11.548;2022-09-27T12:08:39;11.50;96.90
72865;DHT22;61000;48.120;11.548;2022-09-27T12:11:16;11.40;97.10
72865;DHT22;61000;48.120;11.548;2022-09-27T12:13:51;11.50;97.40
72865;DHT22;61000;48.120;11.548;2022-09-27T12:16:19;11.50;97.20
72865;DHT22;61000;48.120;11.548;2022-09-27T12:18:49;11.50;97.40
72865;DHT22;61000;48.120;11.548;2022-09-27T12:21:36;11.60;97.50
72865;DHT22;61000;48.120;11.548;2022-09-27T12:24:03;11.70;97.30
72865;DHT22;61000;48.120;11.548;2022-09-27T12:26:39;11.60;97.10
72865;DHT22;61000;48.120;11.548;2022-09-27T12:29:13;11.80;96.80
72865;DHT22;61000;48.120;11.548;2022-09-27T12:31:44;12.20;96.70
72865;DHT22;61000;48.120;11.548;2022-09-27T12:34:16;12.60;95.30
72865;DHT22;61000;48.120;11.548;2022-09-27T12:36:48;12.60;94.90
72865;DHT22;61000;48.120;11.548;2022-09-27T12:39:18;12.60;94.70
72865;DHT22;61000;48.120;11.548;2022-09-27T12:41:55;12.60;93.40
72865;DHT22;61000;48.120;11.548;2022-09-27T12:44:39;12.70;93.50
72865;DHT22;61000;48.120;11.548;2022-09-27T12:47:17;13.00;92.50
72865;DHT22;61000;48.120;11.548;2022-09-27T12:49:54;13.30;91.80
72865;DHT22;61000;48.120;11.548;2022-09-27T12:52:27;13.70;90.90
72865;DHT22;61000;48.120;11.548;2022-09-27T12:55:19;13.80;90.50
72865;DHT22;61000;48.120;11.548;2022-09-27T12:58:18;13.70;90.70
72865;DHT22;61000;48.120;11.548;2022-09-27T13:00:55;13.70;90.40
72865;DHT22;61000;48.120;11.548;2022-09-27T13:03:44;13.60;90.60
72865;DHT22;61000;48.120;11.548;2022-09-27T13:09:45;13.90;89.60
72865;DHT22;61000;48.120;11.548;2022-09-27T13:12:18;13.90;88.80
72865;DHT22;61000;48.120;11.548;2022-09-27T13:14:56;13.50;84.80
72865;DHT22;61000;48.120;11.548;2022-09-27T13:17:47;13.40;84.70
72865;DHT22;61000;48.120;11.548;2022-09-27T13:20:50;13.40;84.00
72865;DHT22;61000;48.120;11.548;2022-09-27T13:23:57;13.40;82.00
72865;DHT22;61000;48.120;11.548;2022-09-27T13:26:47;13.50;80.90
72865;DHT22;61000;48.120;11.548;2022-09-27T13:29:28;13.40;81.70
72865;DHT22;61000;48.120;11.548;2022-09-27T13:35:11;13.10;82.00
72865;DHT22;61000;48.120;11.548;2022-09-27T13:37:48;13.00;83.10
72865;DHT22;61000;48.120;11.548;2022-09-27T13:40:32;13.00;83.50
72865;DHT22;61000;48.120;11.548;2022-09-27T13:43:48;12.90;83.60
72865;DHT22;61000;48.120;11.548;2022-09-27T13:46:47;12.80;84.60
72865;DHT22;61000;48.120;11.548;2022-09-27T13:49:19;12.80;86.00
72865;DHT22;61000;48.120;11.548;2022-09-27T13:52:18;12.70;85.20
72865;DHT22;61000;48.120;11.548;2022-09-27T13:54:51;12.60;86.10
72865;DHT22;61000;48.120;11.548;2022-09-27T13:57:41;12.50;86.40
72865;DHT22;61000;48.120;11.548;2022-09-27T14:00:13;12.50;87.10
72865;DHT22;61000;48.120;11.548;2022-09-27T14:02:59;12.40;87.10
72865;DHT22;61000;48.120;11.548;2022-09-27T14:05:39;12.30;88.00
72865;DHT22;61000;48.120;11.548;2022-09-27T14:08:19;12.30;88.30
72865;DHT22;61000;48.120;11.548;2022-09-27T14:10:46;12.20;89.40
72865;DHT22;61000;48.120;11.548;2022-09-27T14:13:18;12.10;90.20
72865;DHT22;61000;48.120;11.548;2022-09-27T14:15:54;11.90;90.00
72865;DHT22;61000;48.120;11.548;2022-09-27T14:18:21;11.80;90.40
72865;DHT22;61000;48.120;11.548;2022-09-27T14:20:50;11.80;90.80
72865;DHT22;61000;48.120;11.548;2022-09-27T14:23:40;11.90;90.70
72865;DHT22;61000;48.120;11.548;2022-09-27T14:26:22;11.90;90.50
72865;DHT22;61000;48.120;11.548;2022-09-27T14:28:50;12.00;89.70
72865;DHT22;61000;48.120;11.548;2022-09-27T14:31:25;12.20;89.60
72865;DHT22;61000;48.120;11.548;2022-09-27T14:34:12;12.30;87.90
72865;DHT22;61000;48.120;11.548;2022-09-27T14:36:44;12.20;87.40
72865;DHT22;61000;48.120;11.548;2022-09-27T14:39:34;12.10;87.70
72865;DHT22;61000;48.120;11.548;2022-09-27T14:42:18;12.10;88.00
72865;DHT22;61000;48.120;11.548;2022-09-27T14:44:46;11.90;88.50
72865;DHT22;61000;48.120;11.548;2022-09-27T14:47:17;11.70;88.70
72865;DHT22;61000;48.120;11.548;2022-09-27T14:49:48;11.70;89.50
72865;DHT22;61000;48.120;11.548;2022-09-27T14:52:18;11.60;90.00
72865;DHT22;61000;48.120;11.548;2022-09-27T14:54:56;11.60;89.90
72865;DHT22;61000;48.120;11.548;2022-09-27T14:57:24;11.50;90.00
72865;DHT22;61000;48.120;11.548;2022-09-27T14:59:51;11.50;90.30
72865;DHT22;61000;48.120;11.548;2022-09-27T15:02:20;11.40;90.70
72865;DHT22;61000;48.120;11.548;2022-09-27T15:04:49;11.40;90.70
72865;DHT22;61000;48.120;11.548;2022-09-27T15:07:17;11.30;90.60
72865;DHT22;61000;48.120;11.548;2022-09-27T15:09:44;11.40;91.10
72865;DHT22;61000;48.120;11.548;2022-09-27T15:12:17;11.30;91.00
72865;DHT22;61000;48.120;11.548;2022-09-27T15:14:47;11.30;91.30
72865;DHT22;61000;48.120;11.548;2022-09-27T15:17:17;11.30;91.60
72865;DHT22;61000;48.120;11.548;2022-09-27T15:19:59;11.30;91.60
72865;DHT22;61000;48.120;11.548;2022-09-27T15:22:35;11.30;91.60
72865;DHT22;61000;48.120;11.548;2022-09-27T15:25:19;11.40;91.90
72865;DHT22;61000;48.120;11.548;2022-09-27T15:27:52;11.30;91.60
72865;DHT22;61000;48.120;11.548;2022-09-27T15:30:24;11.30;91.70
72865;DHT22;61000;48.120;11.548;2022-09-27T15:32:53;11.30;91.80
72865;DHT22;61000;48.120;11.548;2022-09-27T15:35:24;11.40;91.90
72865;DHT22;61000;48.120;11.548;2022-09-27T15:37:51;11.50;91.60
72865;DHT22;61000;48.120;11.548;2022-09-27T15:40:56;11.50;91.40
72865;DHT22;61000;48.120;11.548;2022-09-27T15:43:29;11.60;91.40
72865;DHT22;61000;48.120;11.548;2022-09-27T15:45:57;11.70;91.30
72865;DHT22;61000;48.120;11.548;2022-09-27T15:48:28;11.70;91.20
72865;DHT22;61000;48.120;11.548;2022-09-27T15:50:56;11.80;91.30
72865;DHT22;61000;48.120;11.548;2022-09-27T15:53:45;11.80;91.20
72865;DHT22;61000;48.120;11.548;2022-09-27T15:56:18;11.70;91.50
72865;DHT22;61000;48.120;11.548;2022-09-27T15:58:46;11.60;91.40
72865;DHT22;61000;48.120;11.548;2022-09-27T16:01:18;11.50;91.70
72865;DHT22;61000;48.120;11.548;2022-09-27T16:03:46;11.40;91.80
72865;DHT22;61000;48.120;11.548;2022-09-27T16:06:13;11.40;91.90
72865;DHT22;61000;48.120;11.548;2022-09-27T16:08:40;11.40;92.10
72865;DHT22;61000;48.120;11.548;2022-09-27T16:11:11;11.30;92.60
72865;DHT22;61000;48.120;11.548;2022-09-27T16:13:39;11.20;93.50
72865;DHT22;61000;48.120;11.548;2022-09-27T16:16:13;11.10;94.30
72865;DHT22;61000;48.120;11.548;2022-09-27T16:18:41;11.00;94.00
72865;DHT22;61000;48.120;11.548;2022-09-27T16:21:08;11.00;94.20